Time;durP1;ratioP1;P1;durP2;ratioP2;P2;SDS_P1;SDS_P2;PMS_P1;PMS_P2;Temp;Humidity;BMP_temperature;BMP_pressure;BME280_temperature;BME280_humidity;BME280_pressure;Samples;Min_cycle;Max_cycle;Signal;HPM_P1;HPM_P2
2022/11/19 00:00:24;;;;;;;21.92;8.63;;;4.70;99.90;;;;;;5037492;28;20064;-80
2022/11/19 00:02:53;;;;;;;20.52;7.20;;;4.70;99.90;;;;;;5036746;28;20024;-79
2022/11/19 00:05:19;;;;;;;19.25;8.32;;;4.70;99.90;;;;;;5036727;28;20028;-78
2022/11/19 00:07:44;;;;;;;20.35;9.00;;;4.70;99.90;;;;;;5036592;28;20021;-80
2022/11/19 00:10:10;;;;;;;19.88;7.57;;;4.70;99.90;;;;;;5055533;28;20095;-79
2022/11/19 00:15:21;;;;;;;24.23;9.18;;;4.70;99.90;;;;;;5055627;28;20032;-79
2022/11/19 00:17:46;;;;;;;23.02;8.55;;;4.70;99.90;;;;;;5037263;28;20029;-79
2022/11/19 00:20:18;;;;;;;22.27;7.47;;;4.70;99.90;;;;;;5036636;28;20040;-79
2022/11/19 00:22:44;;;;;;;20.95;7.95;;;4.60;99.90;;;;;;5036590;28;20017;-80
2022/11/19 00:25:10;;;;;;;18.98;7.90;;;4.60;99.90;;;;;;5036670;28;20048;-79
2022/11/19 00:27:36;;;;;;;25.63;9.50;;;4.60;99.90;;;;;;5036937;28;20017;-80
2022/11/19 00:30:02;;;;;;;21.85;8.20;;;4.60;99.90;;;;;;5054721;28;20056;-79
2022/11/19 00:32:30;;;;;;;16.83;7.40;;;4.60;99.90;;;;;;5037679;28;20052;-79
2022/11/19 00:34:56;;;;;;;21.70;7.93;;;4.50;99.90;;;;;;5054664;28;20028;-79
2022/11/19 00:37:22;;;;;;;21.63;8.02;;;4.50;99.90;;;;;;5036804;28;20029;-79
2022/11/19 00:39:47;;;;;;;22.77;7.63;;;4.50;99.90;;;;;;5055217;28;20480;-79
2022/11/19 00:42:13;;;;;;;21.08;8.25;;;4.50;99.90;;;;;;5036988;28;20021;-80
2022/11/19 00:44:39;;;;;;;19.95;7.22;;;4.50;99.90;;;;;;5037111;28;20442;-80
2022/11/19 00:47:04;;;;;;;18.30;7.65;;;4.50;99.90;;;;;;5036998;28;20437;-80
2022/11/19 00:49:30;;;;;;;19.02;7.18;;;4.40;99.90;;;;;;5037180;28;20017;-80
2022/11/19 00:51:56;;;;;;;18.08;7.13;;;4.40;99.90;;;;;;5054837;28;20052;-80
2022/11/19 00:54:21;;;;;;;22.98;7.30;;;4.40;99.90;;;;;;5036570;28;20025;-80
2022/11/19 00:56:47;;;;;;;18.38;6.93;;;4.40;99.90;;;;;;5036637;28;20495;-80
2022/11/19 00:59:12;;;;;;;15.68;6.28;;;4.30;99.90;;;;;;5054106;28;20037;-79
2022/11/19 01:01:38;;;;;;;17.63;7.68;;;4.30;99.90;;;;;;5036651;28;20060;-80
2022/11/19 01:04:05;;;;;;;20.63;7.07;;;7.40;99.90;;;;;;5054639;28;20468;-80
2022/11/19 01:06:31;;;;;;;20.42;7.05;;;4.30;99.90;;;;;;5036143;28;20022;-80
2022/11/19 01:08:57;;;;;;;22.67;7.68;;;;;;;;;;5054299;28;20021;-80
2022/11/19 01:11:26;;;;;;;19.40;7.40;;;4.30;99.90;;;;;;5053515;28;20029;-80
2022/11/19 01:13:52;;;;;;;16.58;6.63;;;4.30;99.90;;;;;;5036614;28;20079;-79
2022/11/19 01:16:44;;;;;;;20.10;7.03;;;4.40;99.90;;;;;;5036569;28;20480;-80
2022/11/19 01:19:10;;;;;;;20.52;7.55;;;4.30;99.90;;;;;;5036815;28;20399;-80
2022/11/19 01:21:36;;;;;;;18.15;6.70;;;4.30;99.90;;;;;;5040072;28;20021;-80
2022/11/19 01:24:03;;;;;;;23.65;8.30;;;4.30;99.90;;;;;;5057495;28;20511;-80
2022/11/19 01:26:30;;;;;;;21.48;6.63;;;4.30;99.90;;;;;;5039794;28;20025;-80
2022/11/19 01:28:56;;;;;;;19.15;7.18;;;4.30;99.90;;;;;;5039982;28;20060;-79
2022/11/19 01:31:24;;;;;;;17.77;7.03;;;4.30;99.90;;;;;;5039854;28;20028;-79
2022/11/19 01:33:52;;;;;;;17.30;7.20;;;4.20;99.90;;;;;;5040198;28;20037;-79
2022/11/19 01:36:21;;;;;;;17.52;7.38;;;4.20;99.90;;;;;;5040269;28;20028;-79
2022/11/19 01:38:50;;;;;;;18.15;6.35;;;4.20;99.90;;;;;;5058402;28;20028;-79
2022/11/19 01:41:34;;;;;;;16.95;6.78;;;4.20;99.90;;;;;;5039672;28;20492;-79
2022/11/19 01:44:06;;;;;;;20.58;7.43;;;4.20;99.90;;;;;;5040113;28;20021;-79
2022/11/19 01:46:35;;;;;;;16.42;7.53;;;4.20;99.90;;;;;;5039547;28;20390;-80
2022/11/19 01:49:15;;;;;;;20.17;7.70;;;4.20;99.90;;;;;;5039722;28;20028;-80
2022/11/19 01:51:56;;;;;;;18.30;7.53;;;5.60;99.90;;;;;;5040466;28;20560;-79
2022/11/19 01:54:42;;;;;;;23.98;7.60;;;4.20;99.90;;;;;;5040134;28;20025;-79
2022/11/19 01:57:12;;;;;;;19.67;7.63;;;4.20;99.90;;;;;;5040456;28;20033;-79
2022/11/19 01:59:38;;;;;;;19.20;7.38;;;4.10;99.90;;;;;;5058043;28;20035;-79
2022/11/19 02:02:04;;;;;;;23.45;7.82;;;4.10;99.90;;;;;;5040305;28;20032;-79
2022/11/19 02:04:30;;;;;;;21.25;8.80;;;4.00;99.90;;;;;;5039547;28;20025;-79
2022/11/19 02:06:56;;;;;;;20.77;8.88;;;4.00;99.90;;;;;;5040116;28;20112;-79
2022/11/19 02:09:23;;;;;;;17.45;7.22;;;4.00;99.90;;;;;;5058217;28;20060;-79
2022/11/19 02:12:09;;;;;;;20.90;8.25;;;4.00;99.90;;;;;;5057824;28;20391;-79
2022/11/19 02:14:58;;;;;;;19.80;7.63;;;3.90;99.90;;;;;;5040714;28;20024;-79
2022/11/19 02:17:49;;;;;;;18.67;7.70;;;4.00;99.90;;;;;;5058334;28;20395;-79
2022/11/19 02:20:44;;;;;;;21.20;8.43;;;4.00;99.90;;;;;;5057723;28;20032;-79
2022/11/19 02:23:34;;;;;;;17.05;6.35;;;3.90;99.90;;;;;;5040556;28;20021;-79
2022/11/19 02:26:41;;;;;;;17.67;7.68;;;3.90;99.90;;;;;;5040040;28;20017;-79
2022/11/19 02:29:38;;;;;;;20.20;8.25;;;3.90;99.90;;;;;;5036831;28;20484;-79
2022/11/19 02:32:17;;;;;;;18.70;7.95;;;3.90;99.90;;;;;;5056182;28;20388;-80
2022/11/19 02:34:51;;;;;;;20.33;8.35;;;3.90;99.90;;;;;;5038413;28;20460;-78
2022/11/19 02:37:22;;;;;;;22.38;9.13;;;3.90;99.90;;;;;;5056171;28;20031;-78
2022/11/19 02:40:03;;;;;;;20.73;9.05;;;3.90;99.90;;;;;;5039979;28;20021;-79
2022/11/19 02:42:31;;;;;;;21.83;8.93;;;3.90;99.90;;;;;;5039431;28;20037;-79
2022/11/19 02:45:07;;;;;;;18.80;8.55;;;3.90;99.90;;;;;;5057351;28;20506;-79
2022/11/19 02:47:50;;;;;;;21.48;9.27;;;3.90;99.90;;;;;;5039498;28;20025;-79
2022/11/19 02:50:29;;;;;;;21.63;8.75;;;3.80;99.90;;;;;;5039428;28;20021;-79
2022/11/19 02:52:55;;;;;;;22.52;9.10;;;3.80;99.90;;;;;;5039308;28;20065;-79
2022/11/19 02:55:22;;;;;;;24.80;10.32;;;3.70;99.90;;;;;;5039216;28;20025;-79
2022/11/19 03:04:28;;;;;;;22.55;9.00;;;3.70;99.90;;;;;;5038996;28;20047;-79
2022/11/19 03:06:33;;;;;;;22.98;9.88;;;3.70;99.90;;;;;;5057971;28;20036;-79
2022/11/19 03:08:59;;;;;;;21.80;9.90;;;3.70;99.90;;;;;;5039023;28;20059;-79
2022/11/19 03:11:27;;;;;;;24.20;9.68;;;3.60;99.90;;;;;;5056395;28;20423;-79
2022/11/19 03:16:58;;;;;;;23.90;9.50;;;3.60;99.90;;;;;;5057271;28;20063;-79
2022/11/19 03:19:43;;;;;;;23.67;9.32;;;3.60;99.90;;;;;;5039153;28;20021;-79
2022/11/19 03:22:18;;;;;;;23.52;9.95;;;3.50;99.90;;;;;;5038416;28;20430;-79
2022/11/19 03:25:26;;;;;;;25.85;11.00;;;3.50;99.90;;;;;;5038753;28;20487;-79
2022/11/19 03:27:57;;;;;;;24.23;10.25;;;3.50;99.90;;;;;;5028113;28;20076;-79
2022/11/19 03:30:23;;;;;;;24.45;10.07;;;3.50;99.90;;;;;;5038473;28;20021;-79
2022/11/19 03:33:06;;;;;;;27.75;11.35;;;3.40;99.90;;;;;;5038228;28;20102;-79
2022/11/19 03:35:37;;;;;;;26.45;10.73;;;3.40;99.90;;;;;;5038992;28;20367;-79
2022/11/19 03:38:07;;;;;;;27.58;11.68;;;3.40;99.90;;;;;;5038007;28;20394;-79
2022/11/19 03:40:33;;;;;;;26.70;11.60;;;3.40;99.90;;;;;;5037546;28;20452;-79
2022/11/19 03:43:03;;;;;;;24.55;9.98;;;3.30;99.90;;;;;;5055783;28;20057;-79
2022/11/19 03:45:35;;;;;;;27.00;10.85;;;3.30;99.90;;;;;;5038332;28;20481;-79
2022/11/19 03:48:02;;;;;;;27.08;11.30;;;3.30;99.90;;;;;;5055770;28;20025;-79
2022/11/19 03:50:28;;;;;;;29.33;10.88;;;3.30;99.90;;;;;;5038791;28;20025;-79
2022/11/19 03:52:54;;;;;;;29.98;12.20;;;3.20;99.90;;;;;;5056161;28;20082;-79
2022/11/19 03:55:25;;;;;;;28.08;10.68;;;3.20;99.90;;;;;;5037861;28;20025;-79
2022/11/19 03:57:59;;;;;;;27.05;10.88;;;3.20;99.90;;;;;;5037493;28;20025;-80
2022/11/19 04:00:24;;;;;;;24.25;10.50;;;3.00;99.90;;;;;;5037256;28;20115;-80
2022/11/19 04:02:50;;;;;;;26.67;11.32;;;3.20;99.90;;;;;;5037630;28;20049;-80
2022/11/19 04:05:15;;;;;;;24.60;10.25;;;3.10;99.90;;;;;;5055747;28;20088;-79
2022/11/19 04:07:41;;;;;;;28.77;12.48;;;3.10;99.90;;;;;;5038020;28;20430;-79
2022/11/19 04:10:07;;;;;;;24.67;10.85;;;3.10;99.90;;;;;;5037971;28;20082;-79
2022/11/19 04:12:32;;;;;;;27.80;12.23;;;3.00;99.90;;;;;;5037644;28;20035;-80
2022/11/19 04:14:58;;;;;;;27.77;11.98;;;3.00;99.90;;;;;;5054826;28;20032;-80
2022/11/19 04:17:24;;;;;;;25.92;10.65;;;;;;;;;;5037976;28;20031;-80
2022/11/19 04:19:49;;;;;;;25.55;10.35;;;3.00;99.90;;;;;;5037677;28;20044;-80
2022/11/19 04:22:15;;;;;;;25.73;11.57;;;3.00;99.90;;;;;;5037587;28;20112;-80
2022/11/19 04:24:40;;;;;;;24.67;10.35;;;3.00;99.90;;;;;;5038054;28;20024;-80
2022/11/19 04:27:06;;;;;;;24.33;11.73;;;3.00;99.90;;;;;;5037197;28;20388;-80
2022/11/19 04:29:31;;;;;;;22.23;9.85;;;2.90;99.90;;;;;;5036896;28;20031;-80
2022/11/19 04:31:57;;;;;;;23.92;10.27;;;3.00;99.90;;;;;;5037382;28;20021;-80
2022/11/19 04:34:22;;;;;;;21.50;9.85;;;2.90;99.90;;;;;;5037439;28;20384;-80
2022/11/19 04:36:48;;;;;;;25.38;10.48;;;2.90;99.90;;;;;;5054951;28;20014;-80
2022/11/19 04:39:14;;;;;;;24.45;10.38;;;2.80;99.90;;;;;;5038817;28;20027;-80
2022/11/19 04:41:39;;;;;;;23.52;10.43;;;2.80;99.90;;;;;;5037332;28;20484;-80
2022/11/19 04:44:05;;;;;;;23.65;10.38;;;2.80;99.90;;;;;;5055749;28;20430;-79
2022/11/19 04:46:31;;;;;;;23.23;10.20;;;2.80;99.90;;;;;;5055541;28;20032;-80
2022/11/19 04:48:57;;;;;;;21.73;9.93;;;2.80;99.90;;;;;;5037552;28;20480;-80
2022/11/19 04:51:23;;;;;;;22.13;9.95;;;2.70;99.90;;;;;;5037476;28;20017;-80
2022/11/19 04:53:49;;;;;;;25.50;10.63;;;2.70;99.90;;;;;;5040652;28;20029;-80
2022/11/19 04:56:14;;;;;;;21.60;9.57;;;2.70;99.90;;;;;;5059322;28;20025;-80
2022/11/19 04:58:40;;;;;;;24.38;10.32;;;2.70;99.90;;;;;;5058594;28;20505;-80
2022/11/19 05:01:06;;;;;;;24.77;10.20;;;2.70;99.90;;;;;;5059306;28;20112;-80
2022/11/19 05:03:32;;;;;;;29.98;10.82;;;2.80;99.90;;;;;;5058729;28;20021;-80
2022/11/19 05:05:57;;;;;;;22.83;9.00;;;2.70;99.90;;;;;;5040657;28;20024;-80
2022/11/19 05:08:23;;;;;;;25.23;9.77;;;2.70;99.90;;;;;;5041010;28;20048;-80
2022/11/19 05:10:49;;;;;;;22.80;10.10;;;3.60;99.90;;;;;;5058148;28;20029;-80
2022/11/19 05:13:14;;;;;;;24.30;10.45;;;2.70;99.90;;;;;;5040362;28;20021;-80
2022/11/19 05:15:40;;;;;;;26.05;11.00;;;2.70;99.90;;;;;;5058338;28;20021;-80
2022/11/19 05:18:06;;;;;;;21.77;9.43;;;2.70;99.90;;;;;;5040616;28;20067;-80
2022/11/19 05:20:31;;;;;;;23.48;9.27;;;2.60;99.90;;;;;;5058494;28;20488;-80
2022/11/19 05:22:57;;;;;;;24.13;10.52;;;2.60;99.90;;;;;;5040053;28;20018;-80
2022/11/19 05:25:23;;;;;;;23.20;10.30;;;2.60;99.90;;;;;;5057868;28;20475;-80
2022/11/19 05:27:48;;;;;;;24.23;9.18;;;2.60;99.90;;;;;;5057300;28;20108;-80
2022/11/19 05:30:17;;;;;;;25.10;9.80;;;2.50;99.90;;;;;;5059141;28;20032;-80
2022/11/19 05:32:42;;;;;;;20.90;9.48;;;5.00;99.90;;;;;;5058492;28;20096;-80
2022/11/19 05:35:08;;;;;;;20.98;8.80;;;2.50;99.90;;;;;;5040996;28;20092;-80
2022/11/19 05:37:34;;;;;;;21.83;8.35;;;2.50;99.90;;;;;;5058074;28;20033;-80
2022/11/19 05:39:59;;;;;;;21.70;9.35;;;2.30;99.90;;;;;;5040312;28;20013;-80
2022/11/19 05:42:25;;;;;;;23.67;9.88;;;2.30;99.90;;;;;;5057474;28;20022;-80
2022/11/19 05:44:50;;;;;;;21.38;9.05;;;2.50;99.90;;;;;;5057973;28;20067;-80
2022/11/19 05:47:17;;;;;;;21.58;9.40;;;2.40;99.90;;;;;;5058127;28;20021;-80
2022/11/19 05:49:42;;;;;;;23.70;9.20;;;2.40;99.90;;;;;;5040187;28;20036;-80
2022/11/19 05:52:09;;;;;;;25.58;10.68;;;2.50;99.90;;;;;;5039243;28;20013;-80
2022/11/19 05:54:34;;;;;;;24.45;10.10;;;2.40;99.90;;;;;;5039245;28;20021;-80
2022/11/19 05:57:00;;;;;;;21.33;9.52;;;2.40;99.90;;;;;;5038934;28;20025;-80
2022/11/19 05:59:26;;;;;;;22.88;9.63;;;;;;;;;;5039373;28;20032;-79
2022/11/19 06:01:52;;;;;;;23.73;10.45;;;2.40;99.90;;;;;;5039339;28;20025;-80
2022/11/19 06:04:17;;;;;;;22.05;10.00;;;2.40;99.90;;;;;;5038844;28;20017;-80
2022/11/19 06:06:43;;;;;;;21.77;8.98;;;2.40;99.90;;;;;;5040101;28;20475;-80
2022/11/19 06:09:08;;;;;;;21.38;9.05;;;2.40;99.90;;;;;;5039610;28;20021;-80
2022/11/19 06:11:49;;;;;;;24.85;10.15;;;2.40;99.90;;;;;;5056224;28;20549;-80
2022/11/19 06:14:25;;;;;;;23.05;9.13;;;2.30;99.90;;;;;;5056077;28;20052;-80
2022/11/19 06:16:56;;;;;;;28.70;9.55;;;2.30;99.90;;;;;;5056198;28;20029;-80
2022/11/19 06:19:22;;;;;;;22.67;9.40;;;2.30;99.90;;;;;;5038316;28;20178;-80
2022/11/19 06:21:49;;;;;;;22.95;9.10;;;2.30;99.90;;;;;;5038036;28;20017;-80
2022/11/19 06:24:14;;;;;;;24.65;8.80;;;2.20;99.90;;;;;;5038444;28;20009;-80
2022/11/19 06:26:44;;;;;;;23.98;9.75;;;2.10;99.90;;;;;;5055942;28;20044;-80
2022/11/19 06:29:14;;;;;;;21.60;9.93;;;5.40;99.90;;;;;;5056273;28;20035;-80
2022/11/19 06:31:39;;;;;;;24.92;9.57;;;2.20;99.90;;;;;;5038550;28;20098;-80
2022/11/19 06:34:05;;;;;;;23.30;10.88;;;2.10;99.90;;;;;;5037921;28;20059;-80
2022/11/19 06:36:31;;;;;;;24.50;9.63;;;2.10;99.90;;;;;;5037451;28;20480;-80
2022/11/19 06:38:56;;;;;;;22.52;9.13;;;2.20;99.90;;;;;;5038496;28;20064;-80
2022/11/19 06:41:22;;;;;;;24.17;10.00;;;2.10;99.90;;;;;;5037872;28;20031;-80
2022/11/19 06:43:47;;;;;;;22.83;8.27;;;2.10;99.90;;;;;;5055931;28;20013;-80
2022/11/19 06:46:13;;;;;;;25.70;9.82;;;2.10;99.90;;;;;;5055751;28;20021;-79
2022/11/19 06:48:39;;;;;;;21.65;7.53;;;2.00;99.90;;;;;;5037376;28;20053;-79
2022/11/19 06:51:08;;;;;;;22.08;8.68;;;2.10;99.90;;;;;;5055505;28;20025;-79
2022/11/19 06:53:34;;;;;;;22.00;8.88;;;2.90;99.90;;;;;;5037995;28;20025;-79
2022/11/19 06:56:02;;;;;;;25.77;10.20;;;2.00;99.90;;;;;;5038759;28;20150;-79
2022/11/19 06:58:28;;;;;;;24.60;9.25;;;2.00;99.90;;;;;;5038652;28;20033;-79
2022/11/19 07:00:54;;;;;;;20.75;8.68;;;1.90;99.90;;;;;;5055752;28;20033;-79
2022/11/19 07:03:24;;;;;;;23.63;8.70;;;4.90;99.90;;;;;;5038663;28;20111;-79
2022/11/19 07:05:55;;;;;;;20.75;8.80;;;1.90;99.90;;;;;;5055939;28;20071;-79
2022/11/19 07:08:21;;;;;;;24.98;9.80;;;1.80;99.90;;;;;;5056476;28;20432;-79
2022/11/19 07:10:47;;;;;;;21.92;9.25;;;1.80;99.90;;;;;;5038443;28;20067;-79
2022/11/19 07:13:12;;;;;;;23.85;9.30;;;1.80;99.90;;;;;;5056893;28;20029;-80
2022/11/19 07:15:38;;;;;;;20.42;8.35;;;;;;;;;;5037279;28;20021;-79
2022/11/19 07:18:04;;;;;;;23.02;8.32;;;1.70;99.90;;;;;;5055291;28;20502;-79
2022/11/19 07:20:30;;;;;;;21.10;8.80;;;1.60;99.90;;;;;;5037439;28;20063;-79
2022/11/19 07:22:55;;;;;;;19.60;7.78;;;1.60;99.90;;;;;;5055070;28;20022;-79
2022/11/19 07:25:21;;;;;;;23.13;8.68;;;1.60;99.90;;;;;;5038421;28;20021;-79
2022/11/19 07:27:46;;;;;;;19.50;8.57;;;1.60;99.90;;;;;;5038169;28;20031;-79
2022/11/19 07:30:13;;;;;;;19.08;8.48;;;1.60;99.90;;;;;;5055993;28;20121;-80
2022/11/19 07:32:40;;;;;;;21.05;9.10;;;1.60;99.90;;;;;;5037738;28;20040;-79
2022/11/19 07:35:08;;;;;;;21.52;8.07;;;1.70;99.90;;;;;;5055754;28;20396;-79
2022/11/19 07:37:34;;;;;;;21.85;8.65;;;;;;;;;;5055300;28;20099;-79
2022/11/19 07:39:59;;;;;;;24.23;9.07;;;1.70;99.90;;;;;;5056193;28;20021;-78
2022/11/19 07:45:09;;;;;;;20.10;8.00;;;1.70;99.90;;;;;;5057552;28;20027;-79
2022/11/19 07:47:35;;;;;;;21.77;8.60;;;1.70;99.90;;;;;;5037839;28;20017;-79
2022/11/19 07:50:01;;;;;;;20.73;7.70;;;1.80;99.90;;;;;;5037905;28;20029;-79
2022/11/19 07:52:27;;;;;;;21.70;8.38;;;1.70;99.90;;;;;;5038238;28;20025;-79
2022/11/19 07:54:52;;;;;;;20.30;8.32;;;1.80;99.90;;;;;;5038889;28;20498;-78
2022/11/19 07:57:18;;;;;;;22.23;8.05;;;1.80;99.90;;;;;;5055975;28;20021;-78
2022/11/19 07:59:47;;;;;;;20.10;8.10;;;1.80;99.90;;;;;;5055136;28;20396;-78
2022/11/19 08:02:13;;;;;;;19.95;7.95;;;1.90;99.90;;;;;;5037355;28;20024;-78
2022/11/19 08:04:39;;;;;;;21.95;8.23;;;1.90;99.90;;;;;;5037852;28;20028;-79
2022/11/19 08:07:04;;;;;;;19.83;7.90;;;1.80;99.90;;;;;;5036817;28;20009;-79
2022/11/19 08:09:32;;;;;;;23.38;9.10;;;1.90;99.90;;;;;;5037948;28;20017;-79
2022/11/19 08:11:58;;;;;;;20.57;8.10;;;1.80;99.90;;;;;;5037273;28;20036;-79
2022/11/19 08:14:24;;;;;;;16.58;7.10;;;1.80;99.90;;;;;;5037527;28;20492;-79
2022/11/19 08:19:33;;;;;;;21.20;8.15;;;1.70;99.90;;;;;;5056525;28;20039;-79
2022/11/19 08:21:59;;;;;;;19.77;8.43;;;;;;;;;;5037140;28;20013;-79
2022/11/19 08:24:25;;;;;;;22.27;7.57;;;1.60;99.90;;;;;;5062026;28;20024;-75
2022/11/19 08:26:51;;;;;;;19.00;8.38;;;1.60;99.90;;;;;;5042712;28;20475;-79
2022/11/19 08:29:22;;;;;;;21.00;8.10;;;1.60;99.90;;;;;;5045767;28;20025;-79
2022/11/19 08:31:52;;;;;;;18.90;7.85;;;1.70;99.90;;;;;;5045183;28;20480;-79
2022/11/19 09:03:04;;;;;;;23.80;8.57;;;;;;;;;;5057330;28;20573;-76
2022/11/19 09:05:30;;;;;;;21.48;8.18;;;;;;;;;;5048003;28;20026;-79
2022/11/19 09:07:56;;;;;;;21.95;8.65;;;;;;;;;;5054768;28;20040;-76
2022/11/19 09:10:22;;;;;;;24.13;8.68;;;;;;;;;;5038672;28;20104;-76
2022/11/19 09:12:49;;;;;;;22.25;8.43;;;;;;;;;;5053090;28;20033;-76
2022/11/19 09:15:15;;;;;;;24.00;9.38;;;;;;;;;;5038369;28;20033;-76
2022/11/19 09:17:41;;;;;;;20.98;8.45;;;;;;;;;;5054187;28;20036;-77
2022/11/19 09:20:07;;;;;;;22.83;8.48;;;;;;;;;;5038532;28;20044;-76
2022/11/19 09:22:33;;;;;;;20.92;8.70;;;;;;;;;;5038256;28;20029;-76
2022/11/19 09:24:59;;;;;;;19.33;8.70;;;;;;;;;;5037425;28;20101;-76
2022/11/19 09:27:25;;;;;;;20.52;8.48;;;;;;;;;;5053755;28;20030;-76
2022/11/19 09:29:51;;;;;;;21.70;8.65;;;;;;;;;;5037596;28;20087;-77
2022/11/19 09:32:17;;;;;;;19.80;8.18;;;;;;;;;;5052435;28;20021;-76
2022/11/19 09:34:43;;;;;;;20.73;8.80;;;;;;;;;;5053123;28;20021;-76
2022/11/19 09:37:09;;;;;;;19.33;7.90;;;;;;;;;;5037374;28;20025;-75
2022/11/19 09:39:35;;;;;;;18.15;7.82;;;2.30;99.90;;;;;;5037156;28;20022;-75
2022/11/19 09:42:22;;;;;;;17.20;7.22;;;2.40;99.90;;;;;;5036254;28;20032;-76
2022/11/19 09:45:02;;;;;;;15.18;6.72;;;2.50;99.90;;;;;;5036964;28;20104;-76
2022/11/19 09:47:33;;;;;;;16.88;7.18;;;2.50;99.90;;;;;;5037518;28;20168;-76
2022/11/19 09:50:12;;;;;;;20.80;7.72;;;2.50;99.90;;;;;;5036871;28;20026;-76
2022/11/19 09:53:02;;;;;;;16.45;6.43;;;2.50;99.90;;;;;;5037609;28;20036;-76
2022/11/19 09:55:38;;;;;;;16.85;6.80;;;2.50;99.90;;;;;;5035384;28;20025;-76
2022/11/19 09:58:27;;;;;;;17.70;6.70;;;2.50;99.90;;;;;;5037276;28;20029;-76
2022/11/19 10:00:53;;;;;;;18.15;6.85;;;;;;;;;;5059543;22;20106;-77
2022/11/19 10:03:22;;;;;;;17.95;6.43;;;2.50;99.90;;;;;;5056130;28;20040;-77
2022/11/19 10:05:50;;;;;;;16.83;6.95;;;2.50;99.90;;;;;;5038713;28;20017;-78
2022/11/19 10:08:34;;;;;;;15.73;6.25;;;2.50;99.90;;;;;;5056442;28;20090;-78
2022/11/19 10:11:23;;;;;;;13.30;5.88;;;2.50;99.90;;;;;;5057095;28;20032;-78
2022/11/19 10:14:01;;;;;;;14.38;6.25;;;2.50;99.90;;;;;;5056922;28;20482;-78
2022/11/19 10:16:48;;;;;;;14.77;6.22;;;2.50;99.90;;;;;;5038745;28;20025;-79
2022/11/19 10:19:25;;;;;;;12.75;5.00;;;2.50;99.90;;;;;;5038593;28;20055;-78
2022/11/19 10:22:05;;;;;;;14.88;5.55;;;2.60;99.90;;;;;;5056593;28;20056;-78
2022/11/19 10:24:40;;;;;;;13.57;6.00;;;2.60;99.90;;;;;;5038724;28;20029;-72
2022/11/19 10:27:15;;;;;;;15.23;4.78;;;2.60;99.90;;;;;;5056444;28;20086;-78
2022/11/19 10:29:42;;;;;;;14.55;6.20;;;2.60;99.90;;;;;;5057392;28;20121;-79
2022/11/19 10:32:30;;;;;;;15.52;5.55;;;2.60;99.90;;;;;;5039581;28;20029;-79
2022/11/19 10:35:01;;;;;;;13.43;4.90;;;2.70;99.90;;;;;;5040296;28;20017;-79
2022/11/19 10:37:35;;;;;;;14.38;5.50;;;2.70;99.90;;;;;;5058378;28;20079;-79
2022/11/19 10:40:12;;;;;;;13.82;5.95;;;2.80;99.90;;;;;;5060486;28;20089;-79
2022/11/19 10:42:43;;;;;;;20.92;6.35;;;2.80;99.90;;;;;;5045273;28;20070;-79
2022/11/19 10:45:16;;;;;;;11.65;4.93;;;;;;;;;;5044866;28;20025;-79
2022/11/19 10:48:13;;;;;;;11.70;4.65;;;2.90;99.90;;;;;;5045881;28;20487;-79
2022/11/19 10:50:40;;;;;;;9.20;3.70;;;3.00;99.90;;;;;;5042181;28;20028;-79
2022/11/19 10:53:35;;;;;;;12.82;4.93;;;3.10;99.90;;;;;;5067302;28;20021;-79
2022/11/19 10:56:50;;;;;;;11.77;5.18;;;3.10;99.90;;;;;;5075542;28;20080;-82
2022/11/19 10:59:27;;;;;;;12.63;5.03;;;3.10;99.90;;;;;;5058240;28;20041;-78
2022/11/19 11:01:58;;;;;;;13.05;4.72;;;3.10;99.90;;;;;;5037962;28;20036;-78
2022/11/19 11:04:27;;;;;;;11.40;4.93;;;3.20;99.90;;;;;;5055779;28;20056;-78
2022/11/19 11:06:54;;;;;;;12.85;4.80;;;3.20;99.90;;;;;;5039925;28;20013;-78
2022/11/19 11:09:33;;;;;;;12.52;5.47;;;3.30;99.90;;;;;;5037554;28;20021;-77
2022/11/19 11:15:25;;;;;;;12.57;4.22;;;3.40;99.90;;;;;;5021459;28;19950;-77
2022/11/19 11:18:09;;;;;;;13.73;4.35;;;3.40;99.90;;;;;;5037445;28;20483;-77
2022/11/19 11:20:35;;;;;;;9.13;4.03;;;3.50;99.90;;;;;;5055439;28;20078;-78
2022/11/19 11:23:26;;;;;;;11.65;4.68;;;3.30;99.90;;;;;;5054706;28;20483;-77
2022/11/19 11:26:05;;;;;;;10.05;4.15;;;3.50;99.90;;;;;;5046636;28;20062;-78
2022/11/19 11:28:34;;;;;;;9.18;4.28;;;3.60;99.90;;;;;;5054908;28;20079;-78
2022/11/19 11:31:09;;;;;;;10.70;4.63;;;3.70;99.90;;;;;;5054928;28;20059;-78
2022/11/19 11:33:40;;;;;;;12.70;4.10;;;4.00;99.90;;;;;;5036842;28;20025;-78
2022/11/19 11:36:06;;;;;;;10.80;4.07;;;3.80;99.90;;;;;;5037608;28;20419;-78
2022/11/19 11:38:46;;;;;;;9.82;4.22;;;3.90;99.90;;;;;;5036969;28;20116;-78
2022/11/19 11:41:16;;;;;;;10.77;4.18;;;3.90;99.90;;;;;;5054995;28;20021;-79
2022/11/19 11:44:00;;;;;;;13.50;5.40;;;4.10;99.90;;;;;;5055064;28;20017;-78
2022/11/19 11:46:39;;;;;;;10.50;4.45;;;4.10;99.90;;;;;;5036764;28;20391;-78
2022/11/19 11:49:05;;;;;;;;;;;4.10;99.90;;;;;;5037295;28;20033;-79
2022/11/19 11:51:38;;;;;;;13.57;3.97;;;4.20;99.90;;;;;;5037073;28;19904;-79
2022/11/19 11:54:20;;;;;;;9.73;3.95;;;4.20;99.90;;;;;;5037040;28;20028;-78
2022/11/19 11:56:46;;;;;;;14.80;4.50;;;4.40;99.90;;;;;;5038079;28;20029;-79
2022/11/19 11:59:32;;;;;;;9.57;4.07;;;4.40;99.90;;;;;;5037126;28;20025;-78
2022/11/19 12:02:06;;;;;;;10.32;4.20;;;4.50;99.90;;;;;;5035924;28;20041;-79
2022/11/19 12:04:34;;;;;;;10.70;3.72;;;4.70;99.90;;;;;;5036721;28;20033;-79
2022/11/19 12:07:18;;;;;;;7.80;3.38;;;4.80;99.90;;;;;;5036857;28;20063;-79
2022/11/19 12:09:46;;;;;;;9.43;4.20;;;4.80;99.90;;;;;;5037071;28;20021;-79
2022/11/19 12:12:37;;;;;;;9.40;4.15;;;4.60;99.90;;;;;;5036298;28;20087;-79
2022/11/19 12:15:18;;;;;;;11.95;5.03;;;4.90;99.90;;;;;;5036803;28;20025;-79
2022/11/19 12:18:05;;;;;;;9.15;4.15;;;4.90;99.90;;;;;;5036325;28;20029;-79
2022/11/19 12:21:01;;;;;;;11.38;5.10;;;5.00;99.90;;;;;;5037404;28;20020;-78
2022/11/19 12:23:44;;;;;;;9.60;3.80;;;5.20;99.90;;;;;;5037618;28;20121;-79
2022/11/19 12:26:12;;;;;;;8.30;3.60;;;5.20;99.90;;;;;;5037142;28;20028;-80
2022/11/19 12:28:58;;;;;;;9.32;4.10;;;5.40;99.90;;;;;;5055147;28;20040;-79
2022/11/19 12:32:03;;;;;;;6.70;3.00;;;5.40;99.90;;;;;;5036949;28;20017;-79
2022/11/19 12:34:56;;;;;;;8.52;3.65;;;5.40;99.90;;;;;;5036715;28;20033;-78
2022/11/19 12:37:56;;;;;;;13.55;4.47;;;5.40;99.90;;;;;;5027936;28;20041;-79
2022/11/19 12:40:49;;;;;;;8.75;3.80;;;5.40;99.90;;;;;;5036829;28;20021;-79
2022/11/19 12:43:26;;;;;;;7.70;3.70;;;5.50;99.90;;;;;;5056112;28;20025;-79
2022/11/19 12:46:13;;;;;;;7.03;3.22;;;5.40;99.90;;;;;;5036756;28;20025;-78
2022/11/19 12:49:17;;;;;;;6.63;2.95;;;5.50;99.90;;;;;;5036442;28;20491;-78
2022/11/19 12:51:51;;;;;;;8.10;3.80;;;5.60;99.90;;;;;;5055023;28;20036;-78
2022/11/19 12:54:57;;;;;;;7.22;2.95;;;5.70;99.90;;;;;;5037240;28;20048;-79
2022/11/19 12:57:37;;;;;;;6.20;2.90;;;5.80;99.90;;;;;;5037422;28;20033;-79
2022/11/19 13:00:20;;;;;;;6.50;3.10;;;5.80;99.90;;;;;;5039993;28;20033;-79
2022/11/19 13:03:04;;;;;;;7.38;3.00;;;6.10;99.90;;;;;;5058040;28;20090;-78
2022/11/19 13:05:49;;;;;;;8.00;3.45;;;6.20;99.90;;;;;;5059905;28;20036;-80
2022/11/19 13:08:21;;;;;;;6.45;2.88;;;6.30;99.90;;;;;;5041834;28;20022;-80
2022/11/19 13:10:51;;;;;;;7.20;3.05;;;6.50;99.90;;;;;;5043078;28;20083;-79
2022/11/19 13:13:24;;;;;;;7.93;2.92;;;6.50;99.90;;;;;;5039156;28;20083;-79
2022/11/19 13:16:12;;;;;;;9.88;3.40;;;6.50;99.90;;;;;;5042238;28;20029;-80
2022/11/19 13:18:42;;;;;;;6.07;1.90;;;6.50;99.90;;;;;;5043124;28;20029;-80
2022/11/19 13:21:29;;;;;;;9.32;2.50;;;6.40;99.90;;;;;;5041947;28;20098;-80
2022/11/19 13:23:55;;;;;;;8.05;3.15;;;6.30;99.90;;;;;;5042301;28;20506;-80
2022/11/19 13:26:31;;;;;;;6.97;2.47;;;6.20;99.90;;;;;;5044154;28;20047;-79
2022/11/19 13:29:30;;;;;;;6.80;2.83;;;6.10;99.90;;;;;;5059754;28;20036;-79
2022/11/19 13:32:31;;;;;;;7.18;2.83;;;6.00;99.90;;;;;;5043173;28;20052;-80
2022/11/19 13:35:24;;;;;;;8.02;3.03;;;5.80;99.90;;;;;;5042746;28;20128;-79
2022/11/19 13:37:56;;;;;;;5.53;2.38;;;5.60;99.90;;;;;;5043871;28;20387;-79
2022/11/19 13:40:44;;;;;;;6.97;1.58;;;5.50;99.90;;;;;;5042256;28;20025;-79
2022/11/19 13:46:43;;;;;;;4.80;2.15;;;6.00;99.90;;;;;;5059454;28;20027;-79
2022/11/19 13:49:17;;;;;;;4.38;1.38;;;6.60;99.90;;;;;;4980225;28;20487;-79
2022/11/19 13:52:23;;;;;;;4.60;1.90;;;7.40;94.50;;;;;;5033153;28;20436;-79
2022/11/19 13:54:49;;;;;;;3.42;1.10;;;7.40;95.10;;;;;;5010293;28;20040;-79
2022/11/19 13:57:42;;;;;;;2.90;1.25;;;7.80;93.90;;;;;;5059764;28;20068;-80
2022/11/19 14:00:22;;;;;;;3.42;1.33;;;7.80;93.10;;;;;;5060768;28;20032;-80
2022/11/19 14:03:16;;;;;;;6.72;1.52;;;7.70;92.70;;;;;;5060840;28;20557;-80
2022/11/19 14:05:48;;;;;;;3.45;1.55;;;7.70;92.90;;;;;;5061438;28;20028;-80
2022/11/19 14:08:34;;;;;;;3.08;1.15;;;7.70;92.70;;;;;;5042725;28;20035;-80
2022/11/19 14:11:12;;;;;;;2.42;0.82;;;7.70;92.40;;;;;;5043630;28;20029;-80